Time;durP1;ratioP1;P1;durP2;ratioP2;P2;SDS_P1;SDS_P2;PMS_P1;PMS_P2;Temp;Humidity;BMP_temperature;BMP_pressure;BME280_temperature;BME280_humidity;BME280_pressure;Samples;Min_cycle;Max_cycle;Signal;HPM_P1;HPM_P2
2022/01/21 00:01:43;;;;;;;27.43;7.87;;;;;;;0.85;83.98;103310.03;5063233;28;20028;-66
2022/01/21 00:04:10;;;;;;;17.93;6.83;;;;;;;0.78;84.18;103314.28;5072275;28;20040;-66
2022/01/21 00:06:36;;;;;;;15.90;7.73;;;;;;;0.74;84.42;103309.00;5055568;28;20052;-66
2022/01/21 00:09:02;;;;;;;20.70;7.23;;;;;;;0.68;84.29;103315.00;5072006;28;20514;-67
2022/01/21 00:11:30;;;;;;;23.50;8.23;;;;;;;0.71;84.57;103315.06;5073691;28;20102;-67
2022/01/21 00:14:00;;;;;;;27.63;7.93;;;;;;;0.65;84.92;103322.81;5057219;28;20459;-66
2022/01/21 00:16:27;;;;;;;24.52;8.75;;;;;;;0.66;85.11;103320.19;5059363;28;20431;-66
2022/01/21 00:19:02;;;;;;;17.97;6.90;;;;;;;0.52;84.93;103305.97;5063726;28;20058;-67
2022/01/21 00:32:28;;;;;;;19.43;7.53;;;;;;;0.71;85.49;103304.56;5067292;28;20097;-66
2022/01/21 00:34:56;;;;;;;26.27;8.13;;;;;;;0.67;85.42;103313.22;5064318;28;20218;-66
2022/01/21 00:37:23;;;;;;;16.07;7.30;;;;;;;0.61;85.21;103310.50;5059458;28;20277;-66
2022/01/21 00:39:55;;;;;;;19.93;7.07;;;;;;;0.52;85.42;103299.84;5059795;28;20463;-66
2022/01/21 00:44:51;;;;;;;22.17;6.93;;;;;;;0.48;85.44;103301.53;5063120;28;20040;-66
2022/01/21 00:47:17;;;;;;;13.18;6.90;;;;;;;0.57;85.73;103300.81;5059084;28;20659;-66
2022/01/21 00:49:43;;;;;;;17.73;6.83;;;;;;;0.38;85.35;103287.41;5062554;28;20016;-66
2022/01/21 00:52:08;;;;;;;17.70;6.30;;;;;;;0.45;85.93;103309.34;5060565;28;20682;-66
2022/01/21 00:54:37;;;;;;;22.10;6.67;;;;;;;0.43;85.80;103306.69;5065791;28;20452;-66
2022/01/21 00:57:03;;;;;;;21.80;6.57;;;;;;;0.34;85.69;103303.00;5072927;28;20498;-67
2022/01/21 00:59:28;;;;;;;18.97;7.30;;;;;;;0.44;85.90;103312.78;5071139;28;20024;-66
2022/01/21 01:01:53;;;;;;;20.53;6.70;;;;;;;0.36;85.40;103306.56;5071618;28;20067;-67
2022/01/21 01:04:24;;;;;;;23.50;6.73;;;;;;;0.40;86.13;103321.44;5072180;28;20133;-66
2022/01/21 01:06:49;;;;;;;16.47;5.97;;;;;;;0.43;86.18;103324.13;5072470;28;20029;-66
2022/01/21 01:09:15;;;;;;;14.87;6.73;;;;;;;0.36;85.44;103323.13;5070106;28;20376;-66
2022/01/21 01:20:03;;;;;;;23.60;7.00;;;;;;;0.20;86.28;103321.06;5065580;28;20106;-66
2022/01/21 01:27:53;;;;;;;20.23;6.20;;;;;;;0.11;86.17;103318.25;5066200;28;20039;-66
2022/01/21 01:30:22;;;;;;;22.27;6.20;;;;;;;0.12;86.38;103306.94;5080102;28;20020;-66
2022/01/21 01:32:49;;;;;;;14.97;6.20;;;;;;;0.01;86.32;103292.78;5068157;28;20099;-66
2022/01/21 01:35:20;;;;;;;15.53;5.73;;;;;;;0.01;86.41;103306.72;5084090;28;20060;-66
2022/01/21 01:38:10;;;;;;;11.13;5.47;;;;;;;-0.06;86.62;103299.59;5071306;28;20028;-66
2022/01/21 01:40:43;;;;;;;18.20;6.50;;;;;;;0.05;86.14;103303.31;5069802;28;20033;-66
2022/01/21 01:51:12;;;;;;;13.53;5.73;;;;;;;-0.02;86.57;103306.66;5066733;28;20428;-66
2022/01/21 01:53:42;;;;;;;16.53;6.33;;;;;;;0.03;86.65;103301.50;5070152;28;20067;-66
2022/01/21 01:56:11;;;;;;;17.25;5.75;;;;;;;-0.01;86.49;103298.84;5068952;28;20024;-66
2022/01/21 01:58:38;;;;;;;18.43;6.47;;;;;;;-0.01;87.23;103304.06;5069871;28;20024;-65
2022/01/21 02:01:05;;;;;;;17.83;5.77;;;;;;;0.02;87.08;103297.16;5069426;28;20028;-66
2022/01/21 02:03:32;;;;;;;19.60;6.13;;;;;;;-0.05;87.20;103291.78;5064838;28;20591;-65
2022/01/21 02:05:57;;;;;;;15.80;5.43;;;;;;;0.03;87.10;103298.91;5069294;28;20487;-66
2022/01/21 02:08:24;;;;;;;17.23;5.93;;;;;;;-0.02;87.36;103284.00;5068856;28;20086;-66
2022/01/21 02:10:49;;;;;;;16.30;6.23;;;;;;;0.02;87.00;103295.41;5070853;28;20021;-65
2022/01/21 02:13:21;;;;;;;16.03;6.00;;;;;;;0.06;87.76;103296.34;5064450;28;20093;-66
2022/01/21 02:16:05;;;;;;;18.10;6.23;;;;;;;0.03;87.89;103305.03;5068551;28;20048;-65
2022/01/21 02:21:36;;;;;;;17.88;6.00;;;;;;;0.10;87.56;103311.28;5070689;28;20078;-65
2022/01/21 02:24:17;;;;;;;18.90;5.87;;;;;;;0.06;86.90;103294.63;5066805;28;20499;-67
2022/01/21 02:26:44;;;;;;;15.33;5.70;;;;;;;-0.01;87.49;103297.97;5066236;28;20035;-65
2022/01/21 02:29:12;;;;;;;18.67;6.60;;;;;;;0.02;87.22;103294.53;5066924;28;20032;-65
2022/01/21 02:31:39;;;;;;;18.77;6.40;;;;;;;-0.11;86.75;103285.56;5061318;28;20024;-66
2022/01/21 02:34:08;;;;;;;19.90;6.67;;;;;;;-0.08;87.38;103290.84;5071042;28;20036;-66
2022/01/21 02:36:33;;;;;;;17.97;6.00;;;;;;;0.04;87.20;103301.56;5058683;28;20074;-65
2022/01/21 02:38:59;;;;;;;18.37;6.10;;;;;;;0.03;87.05;103289.34;5060483;28;20127;-65
2022/01/21 02:41:26;;;;;;;19.20;6.10;;;;;;;-0.04;86.46;103287.44;5062217;28;20044;-66
2022/01/21 02:43:55;;;;;;;15.93;6.57;;;;;;;-0.09;86.76;103295.22;5059822;28;20131;-66
2022/01/21 02:46:23;;;;;;;14.83;6.10;;;;;;;-0.14;86.74;103294.22;5070520;28;20525;-66
2022/01/21 02:48:49;;;;;;;16.60;6.47;;;;;;;-0.17;86.71;103293.28;5060234;28;20090;-67
2022/01/21 02:51:15;;;;;;;16.17;5.90;;;;;;;-0.27;87.62;103290.44;5063167;28;20069;-66
2022/01/21 02:56:16;;;;;;;15.95;5.88;;;;;;;-0.24;87.24;103305.31;5058827;28;20530;-66
2022/01/21 02:58:42;;;;;;;20.63;5.93;;;;;;;-0.22;88.11;103307.97;5060070;28;20024;-66
2022/01/21 03:01:08;;;;;;;14.93;5.90;;;;;;;-0.24;88.34;103310.56;5063517;28;20375;-67
2022/01/21 03:03:34;;;;;;;13.70;5.90;;;;;;;-0.23;88.78;103304.50;5058874;28;20055;-66
2022/01/21 03:06:01;;;;;;;13.73;5.77;;;;;;;-0.14;88.87;103312.53;5062019;28;20024;-66
2022/01/21 03:08:26;;;;;;;21.73;7.33;;;;;;;-0.16;88.47;103301.13;5060033;28;20167;-66
2022/01/21 03:10:54;;;;;;;15.87;5.70;;;;;;;-0.17;87.61;103314.19;5078489;28;20108;-67
2022/01/21 03:13:22;;;;;;;20.90;6.03;;;;;;;-0.29;88.24;103300.00;5076091;28;20261;-66
2022/01/21 03:15:49;;;;;;;24.20;6.70;;;;;;;-0.22;87.68;103305.38;5058479;28;20036;-67
2022/01/21 03:18:15;;;;;;;13.53;6.17;;;;;;;-0.21;87.89;103310.63;5055232;28;20027;-66
2022/01/21 03:20:41;;;;;;;14.13;5.27;;;;;;;-0.25;88.07;103307.06;5055805;28;20110;-69
2022/01/21 03:23:08;;;;;;;16.27;6.13;;;;;;;-0.24;87.85;103311.47;5063679;28;20103;-69
2022/01/21 03:25:34;;;;;;;15.13;6.17;;;;;;;-0.46;88.25;103278.72;5059814;28;20048;-69
2022/01/21 03:28:00;;;;;;;21.13;6.47;;;;;;;-0.28;88.12;103309.59;5054177;28;20388;-66
2022/01/21 03:30:26;;;;;;;20.80;6.37;;;;;;;-0.33;88.00;103311.22;5066031;28;20471;-66
2022/01/21 03:32:51;;;;;;;18.47;6.13;;;;;;;-0.28;87.88;103321.81;5064054;28;20027;-66
2022/01/21 03:35:17;;;;;;;20.83;6.47;;;;;;;-0.31;88.80;103320.00;5057127;28;20036;-66
2022/01/21 03:37:42;;;;;;;22.40;6.20;;;;;;;-0.31;87.66;103321.75;5074826;28;20028;-66
2022/01/21 03:40:08;;;;;;;22.37;6.40;;;;;;;-0.31;88.37;103325.22;5043869;28;20055;-66
2022/01/21 03:42:36;;;;;;;14.07;5.93;;;;;;;-0.27;87.95;103320.94;5063849;28;21458;-67
2022/01/21 03:45:02;;;;;;;22.80;6.40;;;;;;;-0.33;88.68;103331.28;5064262;28;20060;-67
2022/01/21 03:47:30;;;;;;;17.43;6.67;;;;;;;-0.37;88.13;103329.44;5060975;28;20119;-66
2022/01/21 03:50:08;;;;;;;14.87;5.90;;;;;;;-0.39;89.13;103324.16;5059224;28;20055;-66
2022/01/21 03:52:36;;;;;;;15.30;5.60;;;;;;;-0.39;88.50;103318.94;5069770;28;20032;-65
2022/01/21 03:55:01;;;;;;;15.27;5.87;;;;;;;-0.63;88.33;103289.66;5068174;28;20415;-67
2022/01/21 03:57:27;;;;;;;13.53;5.30;;;;;;;-0.41;87.96;103317.13;5049702;28;20029;-66
2022/01/21 03:59:52;;;;;;;13.03;5.40;;;;;;;-0.43;88.61;103329.31;5070124;28;20437;-66
2022/01/21 04:02:17;;;;;;;15.67;5.73;;;;;;;-0.44;88.87;103328.44;5093612;28;20059;-66
2022/01/21 04:04:43;;;;;;;20.23;5.97;;;;;;;-0.36;88.31;103325.97;5059846;28;20041;-66
2022/01/21 04:07:08;;;;;;;18.70;5.70;;;;;;;-0.44;88.54;103330.13;5063199;28;20076;-66
2022/01/21 04:09:36;;;;;;;24.97;6.37;;;;;;;-0.44;88.65;103330.13;5063183;28;20099;-66
2022/01/21 04:12:02;;;;;;;16.07;6.03;;;;;;;-0.44;88.44;103333.66;5055003;28;20476;-66
2022/01/21 04:14:31;;;;;;;16.13;5.67;;;;;;;-0.41;88.73;103330.22;5062393;28;20040;-66
2022/01/21 04:16:57;;;;;;;13.33;6.03;;;;;;;-0.45;87.84;103316.19;5067170;28;20039;-66
2022/01/21 04:19:22;;;;;;;21.47;6.20;;;;;;;-0.41;88.37;103322.38;5068503;28;20044;-67
2022/01/21 04:21:48;;;;;;;15.63;5.80;;;;;;;-0.44;88.18;103327.53;5061581;28;20114;-67
2022/01/21 04:24:15;;;;;;;11.63;5.50;;;;;;;-0.50;87.99;103318.72;5066543;28;20406;-66
2022/01/21 04:26:40;;;;;;;13.17;6.00;;;;;;;-0.53;88.11;103317.75;5066627;28;20039;-66
2022/01/21 04:29:05;;;;;;;11.80;5.57;;;;;;;-0.62;88.68;103307.09;5061550;28;20403;-67
2022/01/21 04:31:33;;;;;;;16.57;5.87;;;;;;;-0.55;88.96;103325.56;5073010;28;20182;-66
2022/01/21 04:33:59;;;;;;;15.97;4.77;;;;;;;-0.54;89.04;103323.84;5061468;28;20066;-66
2022/01/21 04:36:24;;;;;;;17.17;5.57;;;;;;;-0.55;88.29;103312.50;5068712;28;20033;-67
2022/01/21 04:38:54;;;;;;;11.30;5.20;;;;;;;-0.60;88.06;103314.13;5069300;28;20071;-66
2022/01/21 04:49:19;;;;;;;14.20;5.77;;;;;;;-0.61;89.20;103327.16;5067272;28;20113;-69
2022/01/21 04:52:02;;;;;;;12.20;5.30;;;;;;;-0.63;88.98;103324.50;5063124;28;20033;-69
2022/01/21 04:54:28;;;;;;;14.23;6.03;;;;;;;-0.59;89.35;103323.75;5076632;28;20040;-69
2022/01/21 04:56:53;;;;;;;11.97;5.83;;;;;;;-0.68;88.11;103313.03;5084917;28;20078;-69
2022/01/21 04:59:19;;;;;;;9.63;5.27;;;;;;;-0.66;88.25;103310.47;5066276;28;20046;-69
2022/01/21 05:01:47;;;;;;;12.40;5.63;;;;;;;-0.61;88.36;103317.59;5068060;28;20028;-69
2022/01/21 05:04:13;;;;;;;16.27;5.50;;;;;;;-0.64;88.95;103309.69;5055147;28;20136;-66
2022/01/21 05:06:41;;;;;;;14.63;5.77;;;;;;;-0.64;88.42;103309.69;5087650;28;20502;-66
2022/01/21 05:09:07;;;;;;;13.87;5.43;;;;;;;-0.63;88.33;103307.94;5082285;28;20068;-66
2022/01/21 05:11:38;;;;;;;16.57;5.70;;;;;;;-0.66;89.36;103297.41;5087349;28;20048;-66
2022/01/21 05:16:45;;;;;;;13.20;5.83;;;;;;;-0.68;88.84;103305.22;5075970;28;20145;-66
2022/01/21 05:19:17;;;;;;;13.10;5.23;;;;;;;-0.64;88.89;103304.44;5074733;28;20044;-66
2022/01/21 05:21:44;;;;;;;14.93;5.50;;;;;;;-0.70;89.04;103301.69;5062938;28;20040;-66
2022/01/21 05:24:10;;;;;;;15.30;6.07;;;;;;;-0.75;89.09;103300.69;5071077;28;20472;-66
2022/01/21 05:26:38;;;;;;;11.17;5.83;;;;;;;-0.73;89.77;103312.06;5067971;28;20060;-66
2022/01/21 05:29:09;;;;;;;16.30;5.40;;;;;;;-0.72;89.76;103308.59;5064970;28;20048;-67
2022/01/21 05:31:37;;;;;;;16.40;6.27;;;;;;;-0.67;89.58;103313.97;5065539;28;20024;-66
2022/01/21 05:34:03;;;;;;;22.13;6.77;;;;;;;-0.62;90.05;103307.97;5082939;28;20032;-66
2022/01/21 05:36:31;;;;;;;16.30;6.00;;;;;;;-0.66;90.25;103320.94;5061464;28;20046;-66
2022/01/21 05:39:00;;;;;;;13.93;6.20;;;;;;;-0.64;89.85;103321.88;5062758;28;20037;-66
2022/01/21 05:41:28;;;;;;;17.87;6.00;;;;;;;-0.65;89.08;103323.56;5058160;28;20043;-66
2022/01/21 05:44:01;;;;;;;14.27;5.57;;;;;;;-0.66;89.58;103319.19;5053605;28;20477;-66
2022/01/21 05:46:53;;;;;;;12.23;7.13;;;;;;;-0.65;90.02;103325.31;5057734;28;20032;-69
2022/01/21 05:49:15;;;;;;;12.90;6.17;;;;;;;-0.68;89.52;103318.28;5062925;28;20036;-66
2022/01/21 05:51:44;;;;;;;14.27;6.40;;;;;;;-0.79;89.67;103304.97;5063361;28;20463;-66
2022/01/21 05:54:12;;;;;;;15.07;6.72;;;;;;;-0.73;90.53;103309.47;5063712;28;20479;-65
2022/01/21 05:56:39;;;;;;;18.50;6.53;;;;;;;-0.74;89.84;103320.75;5071693;28;20028;-66
2022/01/21 05:59:08;;;;;;;13.63;7.00;;;;;;;-0.66;90.18;103318.31;5062862;28;20032;-67
2022/01/21 06:01:34;;;;;;;14.53;6.87;;;;;;;-0.70;90.40;103325.22;5063572;28;20115;-66
2022/01/21 06:04:03;;;;;;;18.40;6.97;;;;;;;-0.69;90.98;103324.34;5059023;28;20691;-67
2022/01/21 06:06:30;;;;;;;17.23;7.10;;;;;;;-0.72;90.01;103319.06;5074353;28;20068;-66
2022/01/21 06:08:56;;;;;;;18.90;6.63;;;;;;;-0.68;90.53;103333.94;5067952;28;20271;-66
2022/01/21 06:11:21;;;;;;;18.63;6.97;;;;;;;-0.68;90.95;103336.56;5064398;28;20032;-67
2022/01/21 06:13:51;;;;;;;11.90;7.03;;;;;;;-0.72;90.37;103319.06;5059062;28;20028;-66
2022/01/21 06:16:18;;;;;;;16.60;6.97;;;;;;;-0.72;90.48;103339.97;5043645;28;20383;-66
2022/01/21 06:18:46;;;;;;;15.23;6.77;;;;;;;-0.77;90.28;103337.22;5063512;28;20116;-67
2022/01/21 06:21:14;;;;;;;18.63;7.60;;;;;;;-0.67;90.44;103345.31;5060538;28;20044;-66
2022/01/21 06:23:40;;;;;;;14.20;8.20;;;;;;;-0.80;90.30;103326.69;5066832;28;20099;-66
2022/01/21 06:26:05;;;;;;;14.43;6.97;;;;;;;-0.70;90.50;103343.50;5045708;28;20120;-66
2022/01/21 06:28:33;;;;;;;16.57;6.50;;;;;;;-0.70;90.39;103346.13;5075664;28;20043;-66
2022/01/21 06:30:59;;;;;;;20.87;7.50;;;;;;;-0.70;90.45;103335.66;5086403;28;20028;-66
2022/01/21 06:33:24;;;;;;;16.80;6.77;;;;;;;-0.67;90.53;103348.81;5069634;28;20028;-68
2022/01/21 06:35:51;;;;;;;18.70;7.00;;;;;;;-0.64;90.14;103355.84;5071734;28;20086;-66
2022/01/21 06:38:20;;;;;;;15.27;7.30;;;;;;;-0.67;89.91;103366.22;5060729;28;20040;-66
2022/01/21 06:40:47;;;;;;;18.00;7.72;;;;;;;-0.66;91.01;103363.63;5057675;28;20047;-66
2022/01/21 06:43:13;;;;;;;14.80;7.63;;;;;;;-0.63;91.01;103368.03;5063146;28;20028;-66
2022/01/21 06:45:39;;;;;;;18.93;7.90;;;;;;;-0.56;90.92;103369.94;5060421;28;20029;-66
2022/01/21 06:48:08;;;;;;;22.63;8.37;;;;;;;-0.56;91.24;103378.69;5058155;28;20041;-66
2022/01/21 06:50:39;;;;;;;18.27;8.60;;;;;;;-0.55;90.97;103375.22;5070609;28;20103;-66
2022/01/21 06:53:07;;;;;;;18.57;8.10;;;;;;;-0.49;91.90;103379.72;5061239;28;20024;-66
2022/01/21 06:55:33;;;;;;;16.17;7.27;;;;;;;-0.47;91.26;103380.66;5063553;28;20012;-66
2022/01/21 06:58:01;;;;;;;10.67;7.17;;;;;;;-0.43;90.96;103376.38;5059507;28;20033;-67
2022/01/21 07:00:26;;;;;;;12.70;7.50;;;;;;;-0.40;91.59;103381.66;5059374;28;20035;-66
2022/01/21 07:02:55;;;;;;;18.63;7.77;;;;;;;-0.36;91.36;103383.50;5060597;28;20028;-67
2022/01/21 07:05:30;;;;;;;14.97;7.73;;;;;;;-0.29;92.23;103378.44;5063342;28;20102;-67
2022/01/21 07:07:58;;;;;;;16.03;8.10;;;;;;;-0.25;91.92;103387.25;5063937;28;20390;-67
2022/01/21 07:10:25;;;;;;;15.40;8.50;;;;;;;-0.23;92.25;103396.00;5067660;28;20165;-66
2022/01/21 07:12:50;;;;;;;11.97;9.13;;;;;;;-0.17;92.54;103398.75;5069943;28;20111;-66
2022/01/21 07:15:18;;;;;;;15.63;9.07;;;;;;;-0.18;92.21;103396.97;5066531;28;20571;-66
2022/01/21 07:17:44;;;;;;;19.00;9.17;;;;;;;-0.14;92.54;103404.06;5065797;28;20368;-66
2022/01/21 07:20:09;;;;;;;13.67;8.57;;;;;;;-0.07;92.98;103399.84;5066641;28;20033;-67
2022/01/21 07:22:36;;;;;;;18.10;9.07;;;;;;;-0.01;92.62;103399.97;5070481;28;20035;-67
2022/01/21 07:25:01;;;;;;;14.50;9.20;;;;;;;0.00;93.38;103401.75;5068038;28;20055;-68
2022/01/21 07:27:27;;;;;;;17.73;9.77;;;;;;;0.07;93.30;103401.03;5060910;28;20052;-68
2022/01/21 07:29:53;;;;;;;19.37;9.87;;;;;;;0.10;93.50;103397.59;5068444;28;20103;-68
2022/01/21 07:32:19;;;;;;;14.00;10.07;;;;;;;0.14;93.86;103404.66;5084251;28;20752;-68
2022/01/21 07:34:44;;;;;;;21.13;10.70;;;;;;;0.19;93.80;103413.50;5069961;28;20090;-68
2022/01/21 07:37:10;;;;;;;19.93;9.63;;;;;;;0.21;93.28;103409.19;5074071;28;20024;-67
2022/01/21 07:39:36;;;;;;;21.40;10.60;;;;;;;0.23;93.60;103416.19;5070393;28;20044;-67
2022/01/21 07:42:01;;;;;;;15.20;10.27;;;;;;;0.31;93.09;103426.84;5062226;28;20037;-67
2022/01/21 07:44:29;;;;;;;19.97;9.10;;;;;;;0.24;93.54;103414.50;5078437;28;20028;-68
2022/01/21 07:46:55;;;;;;;16.53;10.00;;;;;;;0.32;92.93;103415.50;5058996;28;20032;-68
2022/01/21 07:49:21;;;;;;;17.90;9.83;;;;;;;0.31;92.72;103410.25;5077644;28;20369;-68
2022/01/21 07:51:46;;;;;;;18.80;10.47;;;;;;;0.34;92.84;103399.84;5069689;28;20032;-68
2022/01/21 07:54:14;;;;;;;17.73;9.93;;;;;;;0.35;93.49;103420.81;5062771;28;20048;-68
2022/01/21 07:56:39;;;;;;;13.93;9.53;;;;;;;0.33;93.30;103421.66;5088276;28;20027;-68
2022/01/21 07:59:08;;;;;;;19.20;9.87;;;;;;;0.36;93.50;103413.88;5068508;28;20501;-68
2022/01/21 08:01:35;;;;;;;16.70;9.77;;;;;;;0.36;93.23;103419.09;5065857;28;20804;-67
2022/01/21 08:04:02;;;;;;;21.27;9.83;;;;;;;0.35;93.35;103410.34;5064735;28;20131;-68
2022/01/21 08:06:27;;;;;;;16.57;9.43;;;;;;;0.37;93.22;103400.78;5084351;28;20028;-68
2022/01/21 08:08:54;;;;;;;17.37;10.70;;;;;;;0.21;93.44;103372.56;5063435;28;20564;-68
2022/01/21 08:11:20;;;;;;;23.57;11.50;;;;;;;0.28;93.63;103391.88;5084440;28;20024;-67
2022/01/21 08:13:45;;;;;;;19.73;11.80;;;;;;;0.28;93.23;103384.91;5074036;28;20295;-68
2022/01/21 08:16:11;;;;;;;16.43;10.20;;;;;;;0.43;93.25;103400.03;5085000;28;20062;-68
2022/01/21 08:18:38;;;;;;;15.33;10.17;;;;;;;0.48;93.29;103395.78;5076637;28;20356;-67
2022/01/21 08:21:04;;;;;;;14.07;9.67;;;;;;;0.48;93.47;103392.28;5071537;28;20085;-68
2022/01/21 08:23:32;;;;;;;15.47;10.37;;;;;;;0.47;92.99;103382.66;5071239;28;21395;-67
2022/01/21 08:25:57;;;;;;;16.27;10.43;;;;;;;0.51;92.86;103389.72;5061672;28;20060;-68
2022/01/21 08:28:25;;;;;;;18.10;9.47;;;;;;;0.49;93.40;103394.03;5084335;28;20514;-68
2022/01/21 08:30:53;;;;;;;16.73;8.97;;;;;;;0.48;92.96;103381.81;5071213;28;20399;-68
2022/01/21 08:33:21;;;;;;;20.67;8.77;;;;;;;0.50;93.00;103380.09;5083557;28;20038;-68
2022/01/21 08:35:47;;;;;;;16.03;9.03;;;;;;;0.48;93.21;103384.44;5060366;28;20020;-67
2022/01/21 08:38:15;;;;;;;17.63;9.03;;;;;;;0.45;93.37;103383.50;5076072;28;20039;-69
2022/01/21 08:40:41;;;;;;;15.33;9.13;;;;;;;0.39;92.42;103395.59;5062590;28;20401;-68
2022/01/21 08:43:07;;;;;;;14.73;8.83;;;;;;;0.53;92.69;103406.34;5057501;28;20029;-69
2022/01/21 08:45:33;;;;;;;15.53;9.33;;;;;;;0.52;93.00;103407.19;5061688;28;20032;-68
2022/01/21 08:47:59;;;;;;;18.23;9.57;;;;;;;0.54;93.32;103406.38;5060702;28;20480;-68
2022/01/21 08:50:27;;;;;;;18.63;9.73;;;;;;;0.58;93.15;103397.72;5065892;28;20107;-68
2022/01/21 08:53:06;;;;;;;14.57;9.90;;;;;;;0.61;93.35;103392.53;5071420;28;20115;-67
2022/01/21 08:55:34;;;;;;;16.33;9.70;;;;;;;0.70;93.48;103404.94;5085602;28;20029;-68
2022/01/21 08:58:00;;;;;;;15.27;10.03;;;;;;;0.76;93.50;103415.53;5069140;28;20031;-68
2022/01/21 09:00:26;;;;;;;10.67;9.57;;;;;;;0.80;93.31;103409.50;5069078;28;20025;-69
2022/01/21 09:02:53;;;;;;;20.47;9.20;;;;;;;0.87;93.50;103403.50;5070896;28;20028;-70
2022/01/21 09:05:19;;;;;;;15.17;8.97;;;;;;;0.96;93.54;103407.16;5083721;28;20059;-70
2022/01/21 09:07:45;;;;;;;14.37;8.70;;;;;;;1.10;93.19;103400.44;5072915;28;20032;-70
2022/01/21 09:10:11;;;;;;;17.97;9.13;;;;;;;1.26;93.75;103396.31;5068251;28;20155;-70
2022/01/21 09:12:38;;;;;;;12.20;8.50;;;;;;;1.30;93.38;103378.06;5068409;28;20134;-70
2022/01/21 09:15:05;;;;;;;18.93;8.60;;;;;;;1.28;92.78;103371.91;5069245;28;20028;-70
2022/01/21 09:17:31;;;;;;;21.70;9.37;;;;;;;1.30;92.97;103364.97;5066064;28;20025;-70
2022/01/21 09:19:56;;;;;;;15.53;8.50;;;;;;;1.31;92.68;103363.22;5080385;28;20518;-70
2022/01/21 09:22:21;;;;;;;11.60;8.60;;;;;;;1.33;92.56;103364.13;5072469;28;20041;-70
2022/01/21 09:24:47;;;;;;;19.93;8.93;;;;;;;1.39;92.98;103360.72;5065894;28;20089;-69
2022/01/21 09:27:12;;;;;;;14.70;8.53;;;;;;;1.39;92.80;103364.22;5070887;28;20032;-70
2022/01/21 09:29:38;;;;;;;17.43;8.23;;;;;;;1.50;92.92;103373.16;5071464;28;20078;-70
2022/01/21 09:32:07;;;;;;;17.53;8.97;;;;;;;1.62;93.53;103376.78;5067245;28;20391;-71
2022/01/21 09:34:32;;;;;;;17.43;8.63;;;;;;;1.75;93.79;103373.50;5066694;28;20383;-70
2022/01/21 09:37:00;;;;;;;15.93;9.03;;;;;;;1.82;93.01;103375.34;5070471;28;20033;-70
2022/01/21 09:39:30;;;;;;;17.43;8.20;;;;;;;1.92;92.79;103369.38;5073447;28;20025;-69
2022/01/21 09:41:58;;;;;;;22.42;7.72;;;;;;;2.05;92.76;103380.91;5066019;28;20029;-68
2022/01/21 09:44:24;;;;;;;14.20;8.03;;;;;;;2.20;92.88;103385.47;5066942;28;20028;-68
2022/01/21 09:46:51;;;;;;;14.87;7.23;;;;;;;2.34;92.42;103390.91;5067251;28;20042;-68
2022/01/21 09:51:49;;;;;;;19.60;8.00;;;;;;;2.72;91.28;103399.22;5068766;28;20025;-68
2022/01/21 09:54:16;;;;;;;14.43;7.40;;;;;;;2.89;90.78;103400.28;5069700;28;20059;-68
2022/01/21 09:56:42;;;;;;;16.70;6.97;;;;;;;3.03;90.08;103395.19;5067981;28;20398;-68
2022/01/21 09:59:09;;;;;;;15.98;6.22;;;;;;;3.16;89.46;103393.53;5060190;28;20108;-68
2022/01/21 10:01:35;;;;;;;16.98;6.72;;;;;;;3.40;88.69;103400.75;5067915;28;20562;-68
2022/01/21 10:04:04;;;;;;;15.13;6.72;;;;;;;3.55;88.79;103405.25;5067174;28;20126;-68
2022/01/21 10:06:32;;;;;;;12.77;6.30;;;;;;;3.69;87.16;103392.19;5064750;28;20103;-68
2022/01/21 10:08:59;;;;;;;15.38;6.85;;;;;;;4.08;86.15;103413.47;5059562;28;20048;-68
2022/01/21 10:11:25;;;;;;;13.93;6.00;;;;;;;4.40;85.05;103412.75;5060589;28;20029;-68
2022/01/21 10:13:51;;;;;;;16.73;5.82;;;;;;;4.75;82.59;103423.41;5083024;28;20040;-68
2022/01/21 10:16:17;;;;;;;20.58;5.80;;;;;;;5.07;81.50;103424.38;5060116;28;20046;-68
2022/01/21 10:19:10;;;;;;;14.55;5.00;;;;;;;5.56;81.14;103430.56;5067638;28;20036;-68
2022/01/21 10:21:37;;;;;;;10.50;5.05;;;;;;;5.77;78.72;103442.00;5065575;28;20020;-69
2022/01/21 10:24:10;;;;;;;17.45;5.15;;;;;;;5.71;78.38;103440.25;5065202;28;20025;-69
2022/01/21 10:26:46;;;;;;;12.93;5.03;;;;;;;5.61;78.47;103438.47;5071050;28;20044;-69
2022/01/21 10:29:13;;;;;;;18.02;5.20;;;;;;;5.52;78.14;103441.13;5065844;28;20044;-69
2022/01/21 10:31:57;;;;;;;15.68;4.50;;;;;;;5.33;79.75;103440.25;5071066;28;20402;-69
2022/01/21 10:34:31;;;;;;;16.58;5.80;;;;;;;5.38;79.74;103447.28;5070180;28;20435;-69
2022/01/21 10:37:06;;;;;;;16.17;6.10;;;;;;;5.93;78.29;103435.81;5069516;28;20016;-69
2022/01/21 10:39:34;;;;;;;14.50;5.43;;;;;;;6.26;77.59;103436.63;5066601;28;20541;-69
2022/01/21 10:42:00;;;;;;;10.82;4.88;;;;;;;6.63;76.43;103436.47;5069103;28;20025;-69
2022/01/21 10:44:30;;;;;;;16.20;5.28;;;;;;;7.06;74.89;103439.78;5066717;28;20483;-69
2022/01/21 10:47:11;;;;;;;14.68;5.03;;;;;;;7.35;75.45;103451.91;5070263;28;20028;-69
2022/01/21 10:49:39;;;;;;;14.10;4.78;;;;;;;7.86;70.89;103453.22;5069316;28;20025;-69
2022/01/21 10:52:06;;;;;;;13.35;4.43;;;;;;;8.28;70.73;103444.84;5060352;28;20028;-69
2022/01/21 10:54:33;;;;;;;15.27;4.55;;;;;;;7.97;70.58;103440.75;5070009;28;20472;-69
2022/01/21 10:57:18;;;;;;;14.13;4.93;;;;;;;7.62;71.07;103440.22;5068699;28;20042;-69
2022/01/21 10:59:53;;;;;;;13.18;4.63;;;;;;;6.98;71.92;103442.47;5067007;28;20082;-69
2022/01/21 11:02:44;;;;;;;12.73;4.50;;;;;;;6.71;73.84;103440.84;5066394;28;20028;-69
2022/01/21 11:05:15;;;;;;;21.08;5.55;;;;;;;6.40;75.37;103426.00;5068564;28;20048;-68
2022/01/21 11:08:01;;;;;;;15.57;4.75;;;;;;;6.18;76.54;103428.72;5065117;28;20032;-68
2022/01/21 11:10:32;;;;;;;12.20;4.75;;;;;;;5.96;78.05;103430.53;5068780;28;20032;-68
2022/01/21 11:12:59;;;;;;;15.95;5.20;;;;;;;5.77;79.28;103410.31;5065593;28;20029;-68
2022/01/21 11:15:24;;;;;;;17.95;5.45;;;;;;;5.59;79.34;103412.09;5066095;28;20025;-68
2022/01/21 11:17:59;;;;;;;13.02;5.20;;;;;;;5.54;80.43;103407.69;5084933;28;20048;-68
2022/01/21 11:20:35;;;;;;;15.45;5.50;;;;;;;5.54;81.94;103400.66;5068746;28;20059;-69
2022/01/21 11:23:01;;;;;;;17.83;5.75;;;;;;;5.66;82.41;103397.97;5083814;28;20036;-69
2022/01/21 11:25:42;;;;;;;15.93;5.13;;;;;;;5.89;80.50;103390.03;5066557;28;20479;-68
2022/01/21 11:28:09;;;;;;;21.55;6.05;;;;;;;6.02;80.90;103372.41;5069442;28;20506;-71
2022/01/21 11:30:35;;;;;;;17.08;5.50;;;;;;;6.16;81.01;103379.41;5069126;28;20032;-68
2022/01/21 11:33:00;;;;;;;9.77;5.45;;;;;;;6.13;80.28;103378.53;5066838;28;20048;-69
2022/01/21 11:35:28;;;;;;;16.65;5.72;;;;;;;6.06;80.70;103371.53;5057870;28;20028;-68
2022/01/21 11:37:54;;;;;;;21.27;6.03;;;;;;;6.03;80.62;103371.53;5083007;28;20093;-69
2022/01/21 11:40:22;;;;;;;16.55;5.60;;;;;;;6.01;81.53;103361.84;5062421;28;20028;-69
2022/01/21 11:42:48;;;;;;;13.65;5.47;;;;;;;6.00;81.66;103375.94;5057024;28;20037;-68
2022/01/21 11:50:40;;;;;;;19.63;6.25;;;;;;;5.61;81.59;103380.38;5067705;28;20487;-69
2022/01/21 11:53:07;;;;;;;16.80;5.85;;;;;;;5.51;82.21;103373.38;5063806;28;20029;-69
2022/01/21 11:55:41;;;;;;;13.02;5.97;;;;;;;5.49;82.80;103372.50;5070420;28;20119;-69
2022/01/21 11:58:18;;;;;;;21.13;5.82;;;;;;;5.49;82.68;103370.72;5081278;28;20140;-68
2022/01/21 12:00:48;;;;;;;18.88;6.18;;;;;;;5.47;83.52;103365.47;5065144;28;20124;-69
2022/01/21 12:03:14;;;;;;;21.80;6.70;;;;;;;5.44;83.61;103364.56;5060606;28;20032;-68
2022/01/21 12:05:44;;;;;;;14.50;6.43;;;;;;;5.41;82.97;103364.56;5077497;28;20045;-69
2022/01/21 12:08:09;;;;;;;16.48;6.25;;;;;;;5.37;83.66;103365.47;5086472;28;20469;-69
2022/01/21 12:10:38;;;;;;;14.00;5.20;;;;;;;5.39;83.91;103369.88;5070225;28;20115;-69
2022/01/21 12:13:09;;;;;;;21.58;6.78;;;;;;;5.38;84.28;103372.50;5056178;28;20032;-71
2022/01/21 12:18:33;;;;;;;22.10;6.53;;;;;;;5.33;84.50;103359.31;5075943;28;20130;-69
2022/01/21 12:21:23;;;;;;;16.48;6.43;;;;;;;5.27;83.95;103351.41;5074503;28;20090;-69
2022/01/21 12:23:48;;;;;;;17.15;6.78;;;;;;;5.14;84.09;103334.69;5071782;28;20047;-68
2022/01/21 12:26:15;;;;;;;14.60;6.00;;;;;;;5.14;84.30;103342.59;5088464;28;20036;-68
2022/01/21 12:28:43;;;;;;;18.40;6.45;;;;;;;5.07;85.36;103332.94;5081555;28;20028;-68